Terminal Aerodrome Forecast
Issued by NWS Springfield, MO

Home | Current Version | Previous Version | Text Only | Print | Product List | Glossary Off
Versions: 1 2 3 4 5 6 7 8 9 10 11 12 13 14 15 16 17 18 19 20 21 22 23 24

000
FTUS43 KSGF 291700
TAFSGF
TAF
KSGF 291727Z 2918/3018 VRB03KT P6SM VCSH BKN010 BKN030 OVC070
      TEMPO 2918/2922 4SM -SHRA BR BKN008
     FM300000 09005KT 3SM -SHRA BR VCTS SCT007 OVC015CB
     FM300600 30006KT 4SM -SHRA BR VCTS OVC006CB
     FM301200 33005KT 2SM BR OVC003
     FM301600 31008KT P6SM OVC008=

USA.gov is the U.S. government's official web portal to all federal, state and local government web resources and services.